createdAt,value
2023-10-06T00:03:35.536Z,74.75
2023-10-06T00:08:42.373Z,74.83
2023-10-06T00:14:02.115Z,75.50
2023-10-06T00:19:21.379Z,74.76
2023-10-06T00:24:27.429Z,75.73
2023-10-06T00:29:31.829Z,75.52
2023-10-06T00:34:36.336Z,75.47
2023-10-06T00:39:40.068Z,75.29
2023-10-06T00:44:46.684Z,75.72
2023-10-06T00:49:50.132Z,75.82
2023-10-06T00:54:53.419Z,76.21
2023-10-06T00:59:58.769Z,76.39
2023-10-06T01:05:09.767Z,76.62
2023-10-06T01:10:19.140Z,76.69
2023-10-06T01:15:22.576Z,77.00
2023-10-06T01:20:42.586Z,78.05
2023-10-06T01:25:46.449Z,77.49
2023-10-06T01:30:50.654Z,77.64
2023-10-06T01:35:53.824Z,77.67
2023-10-06T01:40:57.688Z,77.43
2023-10-06T01:46:01.192Z,77.30
2023-10-06T01:51:09.905Z,76.95
2023-10-06T01:56:15.427Z,77.00
2023-10-06T02:01:22.318Z,77.07
2023-10-06T02:06:27.695Z,76.86
2023-10-06T02:11:32.314Z,77.25
2023-10-06T02:16:36.852Z,77.57
2023-10-06T02:21:53.592Z,77.93
2023-10-06T02:27:01.718Z,78.67
2023-10-06T02:32:09.329Z,78.12
2023-10-06T02:37:13.771Z,78.66
2023-10-06T02:42:20.855Z,79.17
2023-10-06T02:47:28.629Z,79.39
2023-10-06T02:52:38.922Z,79.27
2023-10-06T02:57:52.595Z,79.62
2023-10-06T03:03:05.074Z,80.04
2023-10-06T03:08:11.620Z,79.96
2023-10-06T03:13:33.502Z,79.86
2023-10-06T03:18:38.565Z,79.85
2023-10-06T03:23:46.797Z,79.60
2023-10-06T03:28:54.448Z,79.73
2023-10-06T03:33:59.071Z,79.77
2023-10-06T03:39:09.204Z,80.08
2023-10-06T03:44:13.863Z,80.19
2023-10-06T03:49:17.416Z,80.26
2023-10-06T03:54:20.628Z,80.29
2023-10-06T03:59:24.970Z,80.70
2023-10-06T04:04:28.214Z,81.14
2023-10-06T04:09:32.789Z,80.75
2023-10-06T04:14:37.148Z,80.50
2023-10-06T04:19:40.240Z,80.81
2023-10-06T04:24:43.655Z,80.68
2023-10-06T04:29:46.737Z,80.76
2023-10-06T04:34:49.924Z,80.46
2023-10-06T04:39:53.299Z,81.03
2023-10-06T04:44:57.004Z,81.50
2023-10-06T04:50:00.220Z,81.61
2023-10-06T04:55:05.074Z,82.00
2023-10-06T05:00:14.773Z,82.09
2023-10-06T05:05:27.332Z,82.20
2023-10-06T05:10:31.852Z,82.38
2023-10-06T05:15:38.785Z,82.26
2023-10-06T05:20:43.838Z,82.21
2023-10-06T05:25:47.505Z,82.05
2023-10-06T05:30:52.333Z,82.08
2023-10-06T05:35:55.729Z,82.05
2023-10-06T05:41:03.297Z,82.08
2023-10-06T05:46:07.178Z,81.35
2023-10-06T05:51:11.714Z,81.33
2023-10-06T05:56:21.349Z,81.02
2023-10-06T06:01:30.435Z,80.95
2023-10-06T06:06:37.593Z,80.78
2023-10-06T06:11:40.787Z,79.25
2023-10-06T06:16:46.266Z,63.05
2023-10-06T06:21:50.726Z,54.23
2023-10-06T06:26:54.670Z,49.46
2023-10-06T06:31:58.337Z,47.82
2023-10-06T06:37:02.022Z,45.21
2023-10-06T06:42:09.587Z,42.29
2023-10-06T06:47:13.739Z,40.20
2023-10-06T06:52:17.012Z,39.96
2023-10-06T06:57:21.704Z,39.69
2023-10-06T07:02:24.914Z,38.50
2023-10-06T07:07:28.608Z,34.78
2023-10-06T07:12:31.770Z,36.92
2023-10-06T07:17:35.155Z,35.81
2023-10-06T07:22:38.670Z,36.02
2023-10-06T07:27:42.626Z,34.71
2023-10-06T07:32:47.980Z,35.16
2023-10-06T07:37:52.718Z,34.16
2023-10-06T07:43:00.457Z,32.94
2023-10-06T07:48:09.084Z,35.42
2023-10-06T07:53:12.603Z,35.54
2023-10-06T07:58:20.450Z,36.12
2023-10-06T08:03:24.161Z,35.60
2023-10-06T08:08:30.254Z,36.02
2023-10-06T08:13:35.319Z,35.34
2023-10-06T08:18:41.733Z,35.45
2023-10-06T08:23:45.780Z,35.81
2023-10-06T08:28:50.765Z,35.80
2023-10-06T08:33:54.664Z,35.99
2023-10-06T08:38:59.237Z,35.93
2023-10-06T08:44:04.831Z,35.43
2023-10-06T08:49:09.917Z,35.12
2023-10-06T08:54:16.146Z,36.16
2023-10-06T08:59:21.764Z,37.48
2023-10-06T09:04:36.258Z,37.54
2023-10-06T09:09:44.909Z,36.35
2023-10-06T09:14:55.971Z,37.29
2023-10-06T09:20:01.022Z,37.92
2023-10-06T09:25:07.678Z,38.21
2023-10-06T09:30:18.372Z,37.31
2023-10-06T09:35:23.496Z,39.04
2023-10-06T09:40:33.580Z,38.20
2023-10-06T09:45:38.830Z,38.58
2023-10-06T09:50:47.853Z,38.73
2023-10-06T09:55:52.460Z,40.10
2023-10-06T10:00:57.212Z,38.70
2023-10-06T10:06:05.768Z,41.38
2023-10-06T10:11:16.035Z,43.28
2023-10-06T10:16:38.261Z,42.24
2023-10-06T10:21:46.112Z,41.97
2023-10-06T10:26:54.100Z,41.97
2023-10-06T10:32:17.972Z,42.46
2023-10-06T10:37:26.112Z,39.92
2023-10-06T10:42:42.451Z,40.19
2023-10-06T10:47:48.038Z,41.87
2023-10-06T10:52:55.203Z,40.41
2023-10-06T10:57:59.440Z,39.43
2023-10-06T11:03:05.892Z,38.79
2023-10-06T11:08:09.190Z,37.98
2023-10-06T11:13:20.022Z,37.97
2023-10-06T11:18:24.601Z,38.49
2023-10-06T11:23:43.398Z,38.16
2023-10-06T11:28:47.390Z,37.26
2023-10-06T11:33:51.651Z,38.42
2023-10-06T11:38:55.849Z,38.50
2023-10-06T11:44:01.537Z,38.03
2023-10-06T11:49:13.441Z,38.64
2023-10-06T11:54:17.203Z,39.37
2023-10-06T11:59:24.314Z,38.92
2023-10-06T12:04:31.948Z,40.73
2023-10-06T12:09:35.799Z,42.16
2023-10-06T12:14:39.902Z,41.72
2023-10-06T12:19:43.973Z,42.82
2023-10-06T12:24:48.141Z,43.08
2023-10-06T12:29:56.774Z,45.05
2023-10-06T12:35:01.522Z,44.80
2023-10-06T12:40:06.119Z,44.81
2023-10-06T12:45:19.801Z,45.13
2023-10-06T12:50:25.414Z,45.58
2023-10-06T12:55:30.476Z,45.36
2023-10-06T13:00:34.126Z,46.96
2023-10-06T13:05:38.051Z,47.41
2023-10-06T13:10:41.826Z,48.13
2023-10-06T13:15:49.855Z,47.78
2023-10-06T13:20:54.064Z,46.15
2023-10-06T13:25:59.827Z,45.80
2023-10-06T13:31:06.069Z,46.08
2023-10-06T13:36:11.652Z,46.93
2023-10-06T13:41:16.259Z,45.55
2023-10-06T13:46:21.898Z,45.42
2023-10-06T13:51:27.996Z,45.78
2023-10-06T13:56:33.472Z,46.40
2023-10-06T14:01:38.002Z,44.33
2023-10-06T14:06:45.475Z,43.90
2023-10-06T14:11:48.929Z,45.25
2023-10-06T14:16:55.837Z,47.68
2023-10-06T14:21:59.510Z,48.06
2023-10-06T14:27:03.122Z,48.96
2023-10-06T14:32:19.931Z,48.96
2023-10-06T14:37:40.412Z,48.93
2023-10-06T14:43:02.523Z,49.72
2023-10-06T14:48:06.649Z,50.35
2023-10-06T14:53:12.003Z,50.83
2023-10-06T14:58:16.083Z,52.00
2023-10-06T15:03:20.303Z,52.21
2023-10-06T15:08:24.669Z,53.14
2023-10-06T15:13:28.668Z,53.65
2023-10-06T15:18:32.663Z,54.86
2023-10-06T15:23:36.236Z,56.48
2023-10-06T15:28:40.504Z,56.76
2023-10-06T15:33:45.534Z,58.59
2023-10-06T15:38:49.865Z,59.65
2023-10-06T15:43:53.379Z,60.80
2023-10-06T15:49:00.325Z,61.81
2023-10-06T15:54:07.329Z,62.70
2023-10-06T15:59:16.370Z,64.73
2023-10-06T16:04:21.219Z,65.29
2023-10-06T16:09:25.360Z,66.91
2023-10-06T16:14:29.880Z,68.25
2023-10-06T16:19:36.094Z,68.32
2023-10-06T16:24:39.898Z,70.23
2023-10-06T16:29:44.025Z,70.68
2023-10-06T16:34:48.091Z,71.74
2023-10-06T16:39:53.063Z,72.76
2023-10-06T16:44:57.868Z,73.10
2023-10-06T16:50:01.125Z,73.97
2023-10-06T16:55:07.580Z,74.76
2023-10-06T17:00:11.578Z,74.81
2023-10-06T17:05:16.229Z,75.75
2023-10-06T17:10:19.925Z,76.10
2023-10-06T17:15:23.455Z,77.48
2023-10-06T17:20:27.013Z,77.01
2023-10-06T17:25:30.788Z,76.88
2023-10-06T17:30:37.680Z,77.23
2023-10-06T17:35:42.394Z,76.96
2023-10-06T17:40:46.372Z,77.27
2023-10-06T17:45:49.917Z,77.63
2023-10-06T17:50:53.689Z,77.59
2023-10-06T17:55:57.785Z,77.17
2023-10-06T18:01:01.046Z,76.19
2023-10-06T18:06:07.201Z,75.20
2023-10-06T18:11:10.459Z,74.58
2023-10-06T18:16:13.597Z,74.13
2023-10-06T18:21:18.996Z,73.64
2023-10-06T18:26:21.998Z,73.40
2023-10-06T18:31:26.639Z,73.17
2023-10-06T18:36:32.165Z,72.74
2023-10-06T18:41:35.895Z,72.22
2023-10-06T18:46:40.713Z,72.00
2023-10-06T18:51:44.035Z,71.60
2023-10-06T18:56:48.560Z,72.00
2023-10-06T19:01:52.394Z,71.80
2023-10-06T19:06:56.127Z,72.18
2023-10-06T19:12:00.060Z,72.47
2023-10-06T19:17:04.326Z,72.74
2023-10-06T19:22:07.500Z,72.87
2023-10-06T19:27:12.659Z,73.17
2023-10-06T19:32:15.856Z,73.62
2023-10-06T19:37:21.238Z,73.67
2023-10-06T19:42:25.077Z,73.88
2023-10-06T19:47:28.909Z,74.55
2023-10-06T19:52:33.169Z,75.01
2023-10-06T19:57:37.384Z,75.79
2023-10-06T20:02:44.058Z,76.35
2023-10-06T20:07:47.877Z,76.99
2023-10-06T20:12:52.335Z,78.26
2023-10-06T20:17:56.972Z,78.39
2023-10-06T20:23:01.825Z,78.18
2023-10-06T20:28:06.652Z,79.28
2023-10-06T20:33:10.472Z,80.01
2023-10-06T20:38:13.734Z,80.57
2023-10-06T20:43:17.004Z,80.89
2023-10-06T20:48:20.764Z,81.04
2023-10-06T20:53:24.665Z,81.56
2023-10-06T20:58:28.172Z,81.73
2023-10-06T21:03:31.313Z,82.29
2023-10-06T21:08:37.143Z,82.09
2023-10-06T21:13:41.876Z,81.83
2023-10-06T21:18:44.999Z,82.05
2023-10-06T21:23:48.484Z,81.68
2023-10-06T21:28:54.450Z,82.03
2023-10-06T21:33:58.227Z,82.42
2023-10-06T21:39:02.584Z,82.69
2023-10-06T21:44:06.847Z,82.90
2023-10-06T21:49:10.270Z,83.45
2023-10-06T21:54:13.476Z,83.16
2023-10-06T21:59:17.066Z,83.15
2023-10-06T22:04:20.137Z,83.46
2023-10-06T22:09:23.529Z,83.67
2023-10-06T22:14:32.825Z,83.78
2023-10-06T22:19:36.961Z,83.62
2023-10-06T22:24:40.239Z,83.83
2023-10-06T22:29:44.933Z,84.39
2023-10-06T22:34:48.587Z,84.85
2023-10-06T22:39:51.758Z,84.88
2023-10-06T22:44:54.929Z,84.85
2023-10-06T22:49:59.342Z,84.58
2023-10-06T22:55:04.512Z,84.71
2023-10-06T23:00:11.694Z,84.57
2023-10-06T23:05:18.883Z,84.66
2023-10-06T23:10:27.840Z,85.35
2023-10-06T23:15:33.272Z,85.80
2023-10-06T23:20:43.437Z,85.63
2023-10-06T23:25:51.110Z,85.15
2023-10-06T23:30:54.324Z,85.90
2023-10-06T23:35:59.528Z,85.60
2023-10-06T23:41:08.842Z,85.95
2023-10-06T23:46:19.381Z,85.74
2023-10-06T23:51:22.992Z,85.82
2023-10-06T23:56:32.576Z,85.87
